sensor_id;sensor_type;location;lat;lon;timestamp;P1;durP1;ratioP1;P2;durP2;ratioP2
42018;SDS011;27703;51.980;5.848;2023-06-19T00:00:07;1.98;;;1.55;;
42018;SDS011;27703;51.980;5.848;2023-06-19T00:02:38;2.22;;;2.03;;
42018;SDS011;27703;51.980;5.848;2023-06-19T00:05:04;2.72;;;1.90;;
42018;SDS011;27703;51.980;5.848;2023-06-19T00:07:31;2.20;;;1.58;;
42018;SDS011;27703;51.980;5.848;2023-06-19T00:09:56;3.33;;;2.03;;
42018;SDS011;27703;51.980;5.848;2023-06-19T00:12:22;2.50;;;1.80;;
42018;SDS011;27703;51.980;5.848;2023-06-19T00:14:47;2.47;;;1.83;;
42018;SDS011;27703;51.980;5.848;2023-06-19T00:17:13;2.15;;;1.60;;
42018;SDS011;27703;51.980;5.848;2023-06-19T00:19:41;3.80;;;2.03;;
42018;SDS011;27703;51.980;5.848;2023-06-19T00:22:07;3.97;;;1.70;;
42018;SDS011;27703;51.980;5.848;2023-06-19T00:24:33;3.28;;;1.85;;
42018;SDS011;27703;51.980;5.848;2023-06-19T00:26:58;2.15;;;1.83;;
42018;SDS011;27703;51.980;5.848;2023-06-19T00:29:31;2.28;;;1.80;;
42018;SDS011;27703;51.980;5.848;2023-06-19T00:31:58;3.20;;;1.98;;
42018;SDS011;27703;51.980;5.848;2023-06-19T00:34:24;2.80;;;2.15;;
42018;SDS011;27703;51.980;5.848;2023-06-19T00:36:51;7.55;;;2.92;;
42018;SDS011;27703;51.980;5.848;2023-06-19T00:39:21;4.28;;;2.17;;
42018;SDS011;27703;51.980;5.848;2023-06-19T00:41:51;2.45;;;2.15;;
42018;SDS011;27703;51.980;5.848;2023-06-19T00:44:17;3.10;;;2.80;;
42018;SDS011;27703;51.980;5.848;2023-06-19T00:46:42;4.72;;;2.97;;
42018;SDS011;27703;51.980;5.848;2023-06-19T00:49:08;2.30;;;1.85;;
42018;SDS011;27703;51.980;5.848;2023-06-19T00:51:34;3.53;;;2.15;;
42018;SDS011;27703;51.980;5.848;2023-06-19T00:54:00;4.80;;;2.45;;
42018;SDS011;27703;51.980;5.848;2023-06-19T00:56:26;2.85;;;2.33;;
42018;SDS011;27703;51.980;5.848;2023-06-19T00:58:52;3.08;;;2.58;;
42018;SDS011;27703;51.980;5.848;2023-06-19T01:01:19;2.55;;;2.13;;
42018;SDS011;27703;51.980;5.848;2023-06-19T01:03:46;2.72;;;1.75;;
42018;SDS011;27703;51.980;5.848;2023-06-19T01:06:13;3.25;;;2.10;;
42018;SDS011;27703;51.980;5.848;2023-06-19T01:11:18;2.85;;;2.20;;
42018;SDS011;27703;51.980;5.848;2023-06-19T01:13:49;2.53;;;2.00;;
42018;SDS011;27703;51.980;5.848;2023-06-19T01:16:20;4.72;;;2.53;;
42018;SDS011;27703;51.980;5.848;2023-06-19T01:18:47;5.88;;;2.25;;
42018;SDS011;27703;51.980;5.848;2023-06-19T01:21:15;3.50;;;1.73;;
42018;SDS011;27703;51.980;5.848;2023-06-19T01:23:42;2.90;;;2.55;;
42018;SDS011;27703;51.980;5.848;2023-06-19T01:26:08;3.55;;;2.35;;
42018;SDS011;27703;51.980;5.848;2023-06-19T01:28:35;3.53;;;2.83;;
42018;SDS011;27703;51.980;5.848;2023-06-19T01:31:02;3.58;;;2.88;;
42018;SDS011;27703;51.980;5.848;2023-06-19T01:33:33;3.28;;;1.80;;
42018;SDS011;27703;51.980;5.848;2023-06-19T01:36:02;2.65;;;2.15;;
42018;SDS011;27703;51.980;5.848;2023-06-19T01:38:29;2.47;;;2.08;;
42018;SDS011;27703;51.980;5.848;2023-06-19T01:40:56;3.92;;;2.20;;
42018;SDS011;27703;51.980;5.848;2023-06-19T01:43:24;3.20;;;2.13;;
42018;SDS011;27703;51.980;5.848;2023-06-19T01:45:51;2.92;;;2.45;;
42018;SDS011;27703;51.980;5.848;2023-06-19T01:48:17;2.63;;;2.03;;
42018;SDS011;27703;51.980;5.848;2023-06-19T01:50:48;3.97;;;1.73;;
42018;SDS011;27703;51.980;5.848;2023-06-19T01:53:15;2.90;;;2.13;;
42018;SDS011;27703;51.980;5.848;2023-06-19T01:55:41;6.35;;;1.95;;
42018;SDS011;27703;51.980;5.848;2023-06-19T01:58:07;2.55;;;1.55;;
42018;SDS011;27703;51.980;5.848;2023-06-19T02:00:32;2.28;;;1.70;;
42018;SDS011;27703;51.980;5.848;2023-06-19T02:03:00;2.63;;;1.95;;
42018;SDS011;27703;51.980;5.848;2023-06-19T02:05:26;3.05;;;1.58;;
42018;SDS011;27703;51.980;5.848;2023-06-19T02:07:52;2.72;;;1.70;;
42018;SDS011;27703;51.980;5.848;2023-06-19T02:10:17;2.83;;;1.60;;
42018;SDS011;27703;51.980;5.848;2023-06-19T02:12:43;2.45;;;1.67;;
42018;SDS011;27703;51.980;5.848;2023-06-19T02:15:09;5.93;;;2.28;;
42018;SDS011;27703;51.980;5.848;2023-06-19T02:17:34;4.80;;;1.70;;
42018;SDS011;27703;51.980;5.848;2023-06-19T02:20:00;2.33;;;1.95;;
42018;SDS011;27703;51.980;5.848;2023-06-19T02:22:26;2.67;;;1.85;;
42018;SDS011;27703;51.980;5.848;2023-06-19T02:24:51;2.15;;;1.50;;
42018;SDS011;27703;51.980;5.848;2023-06-19T02:27:17;2.78;;;1.50;;
42018;SDS011;27703;51.980;5.848;2023-06-19T02:29:42;2.67;;;1.85;;
42018;SDS011;27703;51.980;5.848;2023-06-19T02:32:08;1.73;;;1.38;;
42018;SDS011;27703;51.980;5.848;2023-06-19T02:34:33;2.30;;;1.50;;
42018;SDS011;27703;51.980;5.848;2023-06-19T02:36:59;3.30;;;2.00;;
42018;SDS011;27703;51.980;5.848;2023-06-19T02:39:24;2.05;;;1.55;;
42018;SDS011;27703;51.980;5.848;2023-06-19T02:41:50;2.65;;;1.83;;
42018;SDS011;27703;51.980;5.848;2023-06-19T02:44:16;4.15;;;1.63;;
42018;SDS011;27703;51.980;5.848;2023-06-19T02:46:41;1.77;;;1.40;;
42018;SDS011;27703;51.980;5.848;2023-06-19T02:49:07;1.90;;;1.30;;
42018;SDS011;27703;51.980;5.848;2023-06-19T02:51:32;4.43;;;1.30;;
42018;SDS011;27703;51.980;5.848;2023-06-19T02:53:58;2.80;;;1.95;;
42018;SDS011;27703;51.980;5.848;2023-06-19T02:56:24;2.03;;;1.42;;
42018;SDS011;27703;51.980;5.848;2023-06-19T02:58:51;2.30;;;1.40;;
42018;SDS011;27703;51.980;5.848;2023-06-19T03:01:17;2.17;;;1.50;;
42018;SDS011;27703;51.980;5.848;2023-06-19T03:03:42;2.25;;;1.30;;
42018;SDS011;27703;51.980;5.848;2023-06-19T03:06:08;4.35;;;1.70;;
42018;SDS011;27703;51.980;5.848;2023-06-19T03:08:34;2.45;;;1.30;;
42018;SDS011;27703;51.980;5.848;2023-06-19T03:11:00;2.45;;;1.30;;
42018;SDS011;27703;51.980;5.848;2023-06-19T03:13:26;2.80;;;1.02;;
42018;SDS011;27703;51.980;5.848;2023-06-19T03:15:51;1.50;;;0.70;;
42018;SDS011;27703;51.980;5.848;2023-06-19T03:18:17;3.53;;;0.63;;
42018;SDS011;27703;51.980;5.848;2023-06-19T03:20:42;2.40;;;0.90;;
42018;SDS011;27703;51.980;5.848;2023-06-19T03:23:08;1.55;;;0.70;;
42018;SDS011;27703;51.980;5.848;2023-06-19T03:25:33;1.55;;;0.50;;
42018;SDS011;27703;51.980;5.848;2023-06-19T03:28:03;1.10;;;0.50;;
42018;SDS011;27703;51.980;5.848;2023-06-19T03:30:29;1.63;;;0.40;;
42018;SDS011;27703;51.980;5.848;2023-06-19T03:32:55;2.90;;;0.70;;
42018;SDS011;27703;51.980;5.848;2023-06-19T03:35:20;2.47;;;0.60;;
42018;SDS011;27703;51.980;5.848;2023-06-19T03:37:46;1.38;;;0.70;;
42018;SDS011;27703;51.980;5.848;2023-06-19T03:40:11;1.17;;;0.55;;
42018;SDS011;27703;51.980;5.848;2023-06-19T03:42:39;1.35;;;0.50;;
42018;SDS011;27703;51.980;5.848;2023-06-19T03:45:05;1.45;;;0.65;;
42018;SDS011;27703;51.980;5.848;2023-06-19T03:47:31;1.50;;;0.60;;
42018;SDS011;27703;51.980;5.848;2023-06-19T03:49:56;2.40;;;0.60;;
42018;SDS011;27703;51.980;5.848;2023-06-19T03:52:22;1.15;;;0.50;;
42018;SDS011;27703;51.980;5.848;2023-06-19T03:54:48;2.55;;;0.65;;
42018;SDS011;27703;51.980;5.848;2023-06-19T03:57:13;1.08;;;0.52;;
42018;SDS011;27703;51.980;5.848;2023-06-19T03:59:39;0.98;;;0.40;;
42018;SDS011;27703;51.980;5.848;2023-06-19T04:02:04;1.00;;;0.60;;
42018;SDS011;27703;51.980;5.848;2023-06-19T04:04:30;1.33;;;0.63;;
42018;SDS011;27703;51.980;5.848;2023-06-19T04:06:55;1.05;;;0.50;;
42018;SDS011;27703;51.980;5.848;2023-06-19T04:09:21;2.58;;;0.85;;
42018;SDS011;27703;51.980;5.848;2023-06-19T04:11:46;1.00;;;0.50;;
42018;SDS011;27703;51.980;5.848;2023-06-19T04:14:12;1.42;;;0.57;;
42018;SDS011;27703;51.980;5.848;2023-06-19T04:16:37;1.48;;;0.57;;
42018;SDS011;27703;51.980;5.848;2023-06-19T04:19:03;1.38;;;0.52;;
42018;SDS011;27703;51.980;5.848;2023-06-19T04:21:28;1.65;;;0.60;;
42018;SDS011;27703;51.980;5.848;2023-06-19T04:23:54;1.00;;;0.50;;
42018;SDS011;27703;51.980;5.848;2023-06-19T04:26:19;2.58;;;0.70;;
42018;SDS011;27703;51.980;5.848;2023-06-19T04:28:46;1.30;;;0.70;;
42018;SDS011;27703;51.980;5.848;2023-06-19T04:31:12;2.30;;;0.70;;
42018;SDS011;27703;51.980;5.848;2023-06-19T04:33:37;3.22;;;0.80;;
42018;SDS011;27703;51.980;5.848;2023-06-19T04:36:05;1.30;;;0.70;;
42018;SDS011;27703;51.980;5.848;2023-06-19T04:38:30;2.00;;;0.90;;
42018;SDS011;27703;51.980;5.848;2023-06-19T04:40:56;2.85;;;0.75;;
42018;SDS011;27703;51.980;5.848;2023-06-19T04:43:22;2.38;;;0.70;;
42018;SDS011;27703;51.980;5.848;2023-06-19T04:45:49;2.08;;;1.00;;
42018;SDS011;27703;51.980;5.848;2023-06-19T04:48:15;1.65;;;0.98;;
42018;SDS011;27703;51.980;5.848;2023-06-19T04:50:40;2.40;;;1.08;;
42018;SDS011;27703;51.980;5.848;2023-06-19T04:53:06;1.67;;;0.93;;
42018;SDS011;27703;51.980;5.848;2023-06-19T04:55:31;1.80;;;0.70;;
42018;SDS011;27703;51.980;5.848;2023-06-19T04:57:57;3.42;;;1.17;;
42018;SDS011;27703;51.980;5.848;2023-06-19T05:00:23;2.60;;;1.20;;
42018;SDS011;27703;51.980;5.848;2023-06-19T05:02:49;3.22;;;1.70;;
42018;SDS011;27703;51.980;5.848;2023-06-19T05:05:15;5.18;;;1.10;;
42018;SDS011;27703;51.980;5.848;2023-06-19T05:07:42;1.95;;;1.20;;
42018;SDS011;27703;51.980;5.848;2023-06-19T05:10:08;1.75;;;1.20;;
42018;SDS011;27703;51.980;5.848;2023-06-19T05:12:34;4.18;;;1.52;;
42018;SDS011;27703;51.980;5.848;2023-06-19T05:15:00;2.33;;;1.40;;
42018;SDS011;27703;51.980;5.848;2023-06-19T05:17:26;3.97;;;1.48;;
42018;SDS011;27703;51.980;5.848;2023-06-19T05:19:52;2.22;;;1.50;;
42018;SDS011;27703;51.980;5.848;2023-06-19T05:22:17;3.17;;;1.23;;
42018;SDS011;27703;51.980;5.848;2023-06-19T05:24:43;2.72;;;1.00;;
42018;SDS011;27703;51.980;5.848;2023-06-19T05:27:09;2.95;;;1.10;;
42018;SDS011;27703;51.980;5.848;2023-06-19T05:29:35;3.90;;;1.40;;
42018;SDS011;27703;51.980;5.848;2023-06-19T05:32:01;2.58;;;0.98;;
42018;SDS011;27703;51.980;5.848;2023-06-19T05:34:26;3.70;;;1.00;;
42018;SDS011;27703;51.980;5.848;2023-06-19T05:36:52;2.60;;;1.27;;
42018;SDS011;27703;51.980;5.848;2023-06-19T05:39:18;3.45;;;1.45;;
42018;SDS011;27703;51.980;5.848;2023-06-19T05:41:44;3.40;;;1.27;;
42018;SDS011;27703;51.980;5.848;2023-06-19T05:44:10;3.28;;;1.05;;
42018;SDS011;27703;51.980;5.848;2023-06-19T05:46:40;3.03;;;1.45;;
42018;SDS011;27703;51.980;5.848;2023-06-19T05:49:05;1.77;;;1.13;;
42018;SDS011;27703;51.980;5.848;2023-06-19T05:51:31;2.55;;;1.67;;
42018;SDS011;27703;51.980;5.848;2023-06-19T05:53:56;3.55;;;1.40;;
42018;SDS011;27703;51.980;5.848;2023-06-19T05:56:31;5.93;;;1.88;;
42018;SDS011;27703;51.980;5.848;2023-06-19T05:58:58;2.67;;;1.88;;
42018;SDS011;27703;51.980;5.848;2023-06-19T06:01:25;2.45;;;1.83;;
42018;SDS011;27703;51.980;5.848;2023-06-19T06:03:52;3.03;;;1.73;;
42018;SDS011;27703;51.980;5.848;2023-06-19T06:06:18;2.63;;;1.48;;
42018;SDS011;27703;51.980;5.848;2023-06-19T06:08:44;3.53;;;1.90;;
42018;SDS011;27703;51.980;5.848;2023-06-19T06:11:10;3.65;;;1.40;;
42018;SDS011;27703;51.980;5.848;2023-06-19T06:13:35;2.80;;;1.95;;
42018;SDS011;27703;51.980;5.848;2023-06-19T06:16:01;4.00;;;3.25;;
42018;SDS011;27703;51.980;5.848;2023-06-19T06:18:26;4.13;;;3.33;;
42018;SDS011;27703;51.980;5.848;2023-06-19T06:20:52;4.00;;;3.45;;
42018;SDS011;27703;51.980;5.848;2023-06-19T06:23:18;3.80;;;3.25;;
42018;SDS011;27703;51.980;5.848;2023-06-19T06:25:43;3.10;;;2.80;;
42018;SDS011;27703;51.980;5.848;2023-06-19T06:28:10;7.07;;;3.47;;
42018;SDS011;27703;51.980;5.848;2023-06-19T06:30:36;4.45;;;2.78;;
42018;SDS011;27703;51.980;5.848;2023-06-19T06:33:01;5.50;;;3.97;;
42018;SDS011;27703;51.980;5.848;2023-06-19T06:35:27;6.10;;;3.17;;
42018;SDS011;27703;51.980;5.848;2023-06-19T06:37:53;6.22;;;2.80;;
42018;SDS011;27703;51.980;5.848;2023-06-19T06:40:19;3.20;;;2.90;;
42018;SDS011;27703;51.980;5.848;2023-06-19T06:42:44;4.78;;;3.13;;
42018;SDS011;27703;51.980;5.848;2023-06-19T06:45:10;3.75;;;3.35;;
42018;SDS011;27703;51.980;5.848;2023-06-19T06:47:35;4.03;;;2.58;;
42018;SDS011;27703;51.980;5.848;2023-06-19T06:50:01;4.05;;;2.40;;
42018;SDS011;27703;51.980;5.848;2023-06-19T06:52:27;2.88;;;2.40;;
42018;SDS011;27703;51.980;5.848;2023-06-19T06:54:53;5.78;;;2.05;;
42018;SDS011;27703;51.980;5.848;2023-06-19T06:57:18;2.70;;;1.30;;
42018;SDS011;27703;51.980;5.848;2023-06-19T06:59:44;1.83;;;1.35;;
42018;SDS011;27703;51.980;5.848;2023-06-19T07:02:09;2.70;;;2.45;;
42018;SDS011;27703;51.980;5.848;2023-06-19T07:04:35;2.47;;;2.28;;
42018;SDS011;27703;51.980;5.848;2023-06-19T07:07:01;3.78;;;1.50;;
42018;SDS011;27703;51.980;5.848;2023-06-19T07:09:28;2.33;;;1.95;;
42018;SDS011;27703;51.980;5.848;2023-06-19T07:11:54;2.03;;;1.67;;
42018;SDS011;27703;51.980;5.848;2023-06-19T07:14:19;1.92;;;1.13;;
42018;SDS011;27703;51.980;5.848;2023-06-19T07:16:45;2.35;;;1.55;;
42018;SDS011;27703;51.980;5.848;2023-06-19T07:19:11;2.85;;;2.20;;
42018;SDS011;27703;51.980;5.848;2023-06-19T07:21:37;3.38;;;2.00;;
42018;SDS011;27703;51.980;5.848;2023-06-19T07:24:04;2.50;;;1.98;;
42018;SDS011;27703;51.980;5.848;2023-06-19T07:26:30;5.22;;;2.10;;
42018;SDS011;27703;51.980;5.848;2023-06-19T07:28:55;4.70;;;1.95;;
42018;SDS011;27703;51.980;5.848;2023-06-19T07:31:21;2.92;;;1.90;;
42018;SDS011;27703;51.980;5.848;2023-06-19T07:33:46;6.30;;;2.42;;
42018;SDS011;27703;51.980;5.848;2023-06-19T07:36:12;2.72;;;2.22;;
42018;SDS011;27703;51.980;5.848;2023-06-19T07:38:39;3.38;;;3.08;;
42018;SDS011;27703;51.980;5.848;2023-06-19T07:41:05;3.90;;;3.15;;
42018;SDS011;27703;51.980;5.848;2023-06-19T07:43:32;4.38;;;3.80;;
42018;SDS011;27703;51.980;5.848;2023-06-19T07:45:58;5.45;;;4.20;;
42018;SDS011;27703;51.980;5.848;2023-06-19T07:48:24;8.05;;;4.82;;
42018;SDS011;27703;51.980;5.848;2023-06-19T07:50:49;5.80;;;5.30;;
42018;SDS011;27703;51.980;5.848;2023-06-19T07:53:15;11.15;;;8.15;;
42018;SDS011;27703;51.980;5.848;2023-06-19T07:55:41;7.00;;;6.45;;
42018;SDS011;27703;51.980;5.848;2023-06-19T07:58:07;7.38;;;6.68;;
42018;SDS011;27703;51.980;5.848;2023-06-19T08:00:32;8.05;;;7.25;;
42018;SDS011;27703;51.980;5.848;2023-06-19T08:02:58;7.60;;;6.60;;
42018;SDS011;27703;51.980;5.848;2023-06-19T08:05:23;8.65;;;6.88;;
42018;SDS011;27703;51.980;5.848;2023-06-19T08:07:49;9.98;;;7.00;;
42018;SDS011;27703;51.980;5.848;2023-06-19T08:10:14;6.82;;;5.55;;
42018;SDS011;27703;51.980;5.848;2023-06-19T08:12:41;8.43;;;6.50;;
42018;SDS011;27703;51.980;5.848;2023-06-19T08:15:07;6.80;;;6.15;;
42018;SDS011;27703;51.980;5.848;2023-06-19T08:17:33;7.07;;;5.57;;
42018;SDS011;27703;51.980;5.848;2023-06-19T08:19:59;8.73;;;5.88;;
42018;SDS011;27703;51.980;5.848;2023-06-19T08:22:25;8.95;;;7.30;;
42018;SDS011;27703;51.980;5.848;2023-06-19T08:24:50;7.43;;;6.75;;
42018;SDS011;27703;51.980;5.848;2023-06-19T08:27:16;8.95;;;7.15;;
42018;SDS011;27703;51.980;5.848;2023-06-19T08:29:41;7.47;;;6.78;;
42018;SDS011;27703;51.980;5.848;2023-06-19T08:32:08;7.35;;;6.38;;
42018;SDS011;27703;51.980;5.848;2023-06-19T08:34:34;7.28;;;6.35;;
42018;SDS011;27703;51.980;5.848;2023-06-19T08:37:00;6.78;;;5.45;;
42018;SDS011;27703;51.980;5.848;2023-06-19T08:39:25;5.32;;;4.93;;
42018;SDS011;27703;51.980;5.848;2023-06-19T08:41:51;6.88;;;6.28;;
42018;SDS011;27703;51.980;5.848;2023-06-19T08:44:18;6.20;;;5.60;;
42018;SDS011;27703;51.980;5.848;2023-06-19T08:46:44;9.18;;;6.22;;
42018;SDS011;27703;51.980;5.848;2023-06-19T08:49:09;8.20;;;6.07;;
42018;SDS011;27703;51.980;5.848;2023-06-19T08:51:35;5.03;;;4.63;;
42018;SDS011;27703;51.980;5.848;2023-06-19T08:54:05;7.35;;;6.65;;
42018;SDS011;27703;51.980;5.848;2023-06-19T08:56:32;5.53;;;4.88;;
42018;SDS011;27703;51.980;5.848;2023-06-19T08:59:08;5.70;;;5.20;;
42018;SDS011;27703;51.980;5.848;2023-06-19T09:01:38;7.45;;;5.80;;
42018;SDS011;27703;51.980;5.848;2023-06-19T09:04:08;7.00;;;5.28;;
42018;SDS011;27703;51.980;5.848;2023-06-19T09:06:35;6.53;;;4.50;;
42018;SDS011;27703;51.980;5.848;2023-06-19T09:09:04;6.25;;;4.90;;
42018;SDS011;27703;51.980;5.848;2023-06-19T09:11:35;5.20;;;4.80;;
42018;SDS011;27703;51.980;5.848;2023-06-19T09:14:00;6.28;;;5.72;;
42018;SDS011;27703;51.980;5.848;2023-06-19T09:16:36;8.65;;;7.88;;
42018;SDS011;27703;51.980;5.848;2023-06-19T09:19:05;5.78;;;5.20;;
42018;SDS011;27703;51.980;5.848;2023-06-19T09:21:31;6.97;;;4.88;;
42018;SDS011;27703;51.980;5.848;2023-06-19T09:24:04;5.93;;;5.05;;
42018;SDS011;27703;51.980;5.848;2023-06-19T09:26:31;6.93;;;5.35;;
42018;SDS011;27703;51.980;5.848;2023-06-19T09:28:56;8.80;;;7.18;;
42018;SDS011;27703;51.980;5.848;2023-06-19T09:31:31;6.90;;;6.40;;
42018;SDS011;27703;51.980;5.848;2023-06-19T09:33:58;9.80;;;8.40;;
42018;SDS011;27703;51.980;5.848;2023-06-19T09:36:23;7.07;;;6.35;;
42018;SDS011;27703;51.980;5.848;2023-06-19T09:38:51;7.25;;;6.50;;
42018;SDS011;27703;51.980;5.848;2023-06-19T09:41:17;7.20;;;5.22;;
42018;SDS011;27703;51.980;5.848;2023-06-19T09:43:46;7.47;;;6.78;;
42018;SDS011;27703;51.980;5.848;2023-06-19T09:46:12;7.43;;;6.72;;
42018;SDS011;27703;51.980;5.848;2023-06-19T09:48:43;10.60;;;9.05;;
42018;SDS011;27703;51.980;5.848;2023-06-19T09:53:36;8.90;;;7.63;;
42018;SDS011;27703;51.980;5.848;2023-06-19T09:56:02;7.68;;;6.97;;
42018;SDS011;27703;51.980;5.848;2023-06-19T09:58:27;8.25;;;7.45;;
42018;SDS011;27703;51.980;5.848;2023-06-19T10:00:55;7.88;;;7.07;;
42018;SDS011;27703;51.980;5.848;2023-06-19T10:03:29;6.88;;;6.18;;
42018;SDS011;27703;51.980;5.848;2023-06-19T10:05:59;8.45;;;7.57;;
42018;SDS011;27703;51.980;5.848;2023-06-19T10:08:30;9.23;;;8.30;;
42018;SDS011;27703;51.980;5.848;2023-06-19T10:10:56;9.32;;;8.43;;
42018;SDS011;27703;51.980;5.848;2023-06-19T10:13:30;9.23;;;8.38;;
42018;SDS011;27703;51.980;5.848;2023-06-19T10:16:05;10.18;;;8.90;;
42018;SDS011;27703;51.980;5.848;2023-06-19T10:18:45;6.53;;;5.93;;
42018;SDS011;27703;51.980;5.848;2023-06-19T10:21:17;6.15;;;5.55;;
42018;SDS011;27703;51.980;5.848;2023-06-19T10:23:53;6.20;;;5.63;;
42018;SDS011;27703;51.980;5.848;2023-06-19T10:26:20;8.27;;;7.55;;
42018;SDS011;27703;51.980;5.848;2023-06-19T10:28:54;7.95;;;7.25;;
42018;SDS011;27703;51.980;5.848;2023-06-19T10:31:19;8.05;;;7.35;;
42018;SDS011;27703;51.980;5.848;2023-06-19T10:33:45;6.40;;;5.75;;
42018;SDS011;27703;51.980;5.848;2023-06-19T10:36:17;10.00;;;9.00;;
42018;SDS011;27703;51.980;5.848;2023-06-19T10:38:45;9.18;;;8.27;;
42018;SDS011;27703;51.980;5.848;2023-06-19T10:41:17;12.40;;;7.57;;
42018;SDS011;27703;51.980;5.848;2023-06-19T10:44:18;8.10;;;7.22;;
42018;SDS011;27703;51.980;5.848;2023-06-19T10:46:39;10.38;;;6.13;;
42018;SDS011;27703;51.980;5.848;2023-06-19T10:49:06;7.88;;;6.07;;
42018;SDS011;27703;51.980;5.848;2023-06-19T10:51:35;5.90;;;5.40;;
42018;SDS011;27703;51.980;5.848;2023-06-19T10:54:01;7.07;;;6.38;;
42018;SDS011;27703;51.980;5.848;2023-06-19T10:56:27;6.57;;;5.97;;
42018;SDS011;27703;51.980;5.848;2023-06-19T10:58:56;5.38;;;4.97;;
42018;SDS011;27703;51.980;5.848;2023-06-19T11:01:23;8.27;;;7.22;;
42018;SDS011;27703;51.980;5.848;2023-06-19T11:04:01;7.53;;;6.93;;
42018;SDS011;27703;51.980;5.848;2023-06-19T11:06:31;6.57;;;5.97;;
42018;SDS011;27703;51.980;5.848;2023-06-19T11:08:57;12.68;;;9.50;;
42018;SDS011;27703;51.980;5.848;2023-06-19T11:11:22;8.93;;;8.13;;
42018;SDS011;27703;51.980;5.848;2023-06-19T11:13:48;11.05;;;10.02;;
42018;SDS011;27703;51.980;5.848;2023-06-19T11:16:17;8.02;;;7.40;;
42018;SDS011;27703;51.980;5.848;2023-06-19T11:18:42;7.55;;;6.88;;
42018;SDS011;27703;51.980;5.848;2023-06-19T11:21:08;8.07;;;7.38;;
42018;SDS011;27703;51.980;5.848;2023-06-19T11:23:33;9.75;;;8.90;;
42018;SDS011;27703;51.980;5.848;2023-06-19T11:26:03;7.93;;;7.15;;
42018;SDS011;27703;51.980;5.848;2023-06-19T11:28:29;8.27;;;7.47;;
42018;SDS011;27703;51.980;5.848;2023-06-19T11:30:58;8.10;;;7.32;;
42018;SDS011;27703;51.980;5.848;2023-06-19T11:33:28;8.05;;;7.35;;
42018;SDS011;27703;51.980;5.848;2023-06-19T11:35:54;8.57;;;7.70;;
42018;SDS011;27703;51.980;5.848;2023-06-19T11:38:24;9.25;;;8.35;;
42018;SDS011;27703;51.980;5.848;2023-06-19T11:40:51;10.25;;;7.45;;
42018;SDS011;27703;51.980;5.848;2023-06-19T11:43:23;9.20;;;8.40;;
42018;SDS011;27703;51.980;5.848;2023-06-19T11:45:53;9.35;;;8.43;;
42018;SDS011;27703;51.980;5.848;2023-06-19T11:48:26;8.57;;;7.78;;
42018;SDS011;27703;51.980;5.848;2023-06-19T11:50:52;7.72;;;7.07;;
42018;SDS011;27703;51.980;5.848;2023-06-19T11:53:19;8.02;;;7.22;;
42018;SDS011;27703;51.980;5.848;2023-06-19T11:55:45;7.35;;;6.65;;
42018;SDS011;27703;51.980;5.848;2023-06-19T11:58:11;11.77;;;8.88;;
42018;SDS011;27703;51.980;5.848;2023-06-19T12:00:36;7.88;;;6.80;;
42018;SDS011;27703;51.980;5.848;2023-06-19T12:03:03;5.72;;;5.07;;
42018;SDS011;27703;51.980;5.848;2023-06-19T12:05:29;4.63;;;4.10;;
42018;SDS011;27703;51.980;5.848;2023-06-19T12:07:55;5.10;;;4.35;;
42018;SDS011;27703;51.980;5.848;2023-06-19T12:10:21;9.10;;;4.97;;
42018;SDS011;27703;51.980;5.848;2023-06-19T12:12:47;5.65;;;5.10;;
42018;SDS011;27703;51.980;5.848;2023-06-19T12:15:12;6.43;;;5.65;;
42018;SDS011;27703;51.980;5.848;2023-06-19T12:17:38;4.22;;;3.22;;
42018;SDS011;27703;51.980;5.848;2023-06-19T12:20:04;6.22;;;4.63;;
42018;SDS011;27703;51.980;5.848;2023-06-19T12:22:31;7.15;;;5.13;;
42018;SDS011;27703;51.980;5.848;2023-06-19T12:25:00;3.53;;;3.20;;
42018;SDS011;27703;51.980;5.848;2023-06-19T12:27:26;5.72;;;5.20;;
42018;SDS011;27703;51.980;5.848;2023-06-19T12:29:52;4.80;;;3.83;;
42018;SDS011;27703;51.980;5.848;2023-06-19T12:32:17;4.25;;;3.45;;
42018;SDS011;27703;51.980;5.848;2023-06-19T12:34:43;3.15;;;2.85;;
42018;SDS011;27703;51.980;5.848;2023-06-19T12:37:11;5.65;;;5.15;;
42018;SDS011;27703;51.980;5.848;2023-06-19T12:39:40;3.85;;;3.35;;
42018;SDS011;27703;51.980;5.848;2023-06-19T12:42:06;3.90;;;2.92;;
42018;SDS011;27703;51.980;5.848;2023-06-19T12:44:32;6.47;;;2.88;;
42018;SDS011;27703;51.980;5.848;2023-06-19T12:46:58;6.60;;;3.22;;
42018;SDS011;27703;51.980;5.848;2023-06-19T12:49:25;3.22;;;2.17;;
42018;SDS011;27703;51.980;5.848;2023-06-19T12:51:51;3.17;;;2.88;;
42018;SDS011;27703;51.980;5.848;2023-06-19T12:54:17;5.50;;;2.38;;
42018;SDS011;27703;51.980;5.848;2023-06-19T12:56:43;4.18;;;3.33;;
42018;SDS011;27703;51.980;5.848;2023-06-19T12:59:09;6.53;;;3.53;;
42018;SDS011;27703;51.980;5.848;2023-06-19T13:01:35;3.15;;;2.85;;
42018;SDS011;27703;51.980;5.848;2023-06-19T13:04:00;7.30;;;4.25;;
42018;SDS011;27703;51.980;5.848;2023-06-19T13:06:26;6.20;;;3.55;;
42018;SDS011;27703;51.980;5.848;2023-06-19T13:08:52;5.47;;;3.67;;
42018;SDS011;27703;51.980;5.848;2023-06-19T13:11:17;4.20;;;3.05;;
42018;SDS011;27703;51.980;5.848;2023-06-19T13:13:43;4.00;;;3.45;;
42018;SDS011;27703;51.980;5.848;2023-06-19T13:16:08;5.38;;;2.60;;
42018;SDS011;27703;51.980;5.848;2023-06-19T13:18:37;5.85;;;3.15;;
42018;SDS011;27703;51.980;5.848;2023-06-19T13:21:02;5.15;;;3.83;;
42018;SDS011;27703;51.980;5.848;2023-06-19T13:23:28;3.85;;;2.75;;
42018;SDS011;27703;51.980;5.848;2023-06-19T13:25:55;4.68;;;4.20;;
42018;SDS011;27703;51.980;5.848;2023-06-19T13:28:21;6.22;;;4.60;;
42018;SDS011;27703;51.980;5.848;2023-06-19T13:30:47;4.95;;;3.97;;
42018;SDS011;27703;51.980;5.848;2023-06-19T13:33:12;4.05;;;3.17;;
42018;SDS011;27703;51.980;5.848;2023-06-19T13:35:38;3.70;;;3.22;;
42018;SDS011;27703;51.980;5.848;2023-06-19T13:38:03;3.38;;;2.65;;
42018;SDS011;27703;51.980;5.848;2023-06-19T13:40:29;3.35;;;2.92;;
42018;SDS011;27703;51.980;5.848;2023-06-19T13:42:55;2.35;;;1.95;;
42018;SDS011;27703;51.980;5.848;2023-06-19T13:45:21;4.28;;;3.88;;
42018;SDS011;27703;51.980;5.848;2023-06-19T13:47:46;3.63;;;2.65;;
42018;SDS011;27703;51.980;5.848;2023-06-19T13:50:12;2.70;;;2.38;;
42018;SDS011;27703;51.980;5.848;2023-06-19T13:52:43;4.00;;;3.15;;
42018;SDS011;27703;51.980;5.848;2023-06-19T13:55:12;2.33;;;2.05;;
42018;SDS011;27703;51.980;5.848;2023-06-19T13:57:39;4.68;;;3.17;;
42018;SDS011;27703;51.980;5.848;2023-06-19T14:00:05;5.05;;;3.20;;
42018;SDS011;27703;51.980;5.848;2023-06-19T14:02:32;3.55;;;2.60;;
42018;SDS011;27703;51.980;5.848;2023-06-19T14:04:58;6.95;;;3.72;;
42018;SDS011;27703;51.980;5.848;2023-06-19T14:07:25;4.45;;;4.05;;
42018;SDS011;27703;51.980;5.848;2023-06-19T14:09:51;5.05;;;4.00;;
42018;SDS011;27703;51.980;5.848;2023-06-19T14:12:18;3.55;;;3.00;;
42018;SDS011;27703;51.980;5.848;2023-06-19T14:14:44;4.07;;;3.05;;
42018;SDS011;27703;51.980;5.848;2023-06-19T14:17:09;4.80;;;4.30;;
42018;SDS011;27703;51.980;5.848;2023-06-19T14:19:35;3.85;;;3.55;;
42018;SDS011;27703;51.980;5.848;2023-06-19T14:22:00;4.93;;;4.28;;
42018;SDS011;27703;51.980;5.848;2023-06-19T14:24:27;4.85;;;2.90;;
42018;SDS011;27703;51.980;5.848;2023-06-19T14:26:52;3.92;;;3.47;;
42018;SDS011;27703;51.980;5.848;2023-06-19T14:29:18;4.78;;;3.38;;
42018;SDS011;27703;51.980;5.848;2023-06-19T14:31:45;4.43;;;3.63;;
42018;SDS011;27703;51.980;5.848;2023-06-19T14:34:11;3.83;;;3.13;;
42018;SDS011;27703;51.980;5.848;2023-06-19T14:36:37;3.75;;;2.65;;
42018;SDS011;27703;51.980;5.848;2023-06-19T14:39:03;2.80;;;2.58;;
42018;SDS011;27703;51.980;5.848;2023-06-19T14:41:29;5.50;;;3.72;;
42018;SDS011;27703;51.980;5.848;2023-06-19T14:43:54;5.15;;;4.75;;
42018;SDS011;27703;51.980;5.848;2023-06-19T14:46:20;8.57;;;5.10;;
42018;SDS011;27703;51.980;5.848;2023-06-19T14:48:46;3.75;;;3.38;;